sensor_id;sensor_type;location;lat;lon;timestamp;pressure;altitude;pressure_sealevel;temperature;humidity
12759;BME280;20944;47.048;15.390;2022-08-21T00:00:37;97098.13;;;20.38;63.10
12759;BME280;20944;47.048;15.390;2022-08-21T00:03:11;97167.38;;;20.84;62.60
12759;BME280;20944;47.048;15.390;2022-08-21T00:05:44;97087.31;;;20.28;62.28
12759;BME280;20944;47.048;15.390;2022-08-21T00:08:13;97174.91;;;20.90;61.02
12759;BME280;20944;47.048;15.390;2022-08-21T00:10:42;97162.34;;;21.04;60.32
12759;BME280;20944;47.048;15.390;2022-08-21T00:13:11;97161.84;;;21.10;59.91
12759;BME280;20944;47.048;15.390;2022-08-21T00:15:44;97149.25;;;21.12;59.49
12759;BME280;20944;47.048;15.390;2022-08-21T00:18:13;97121.41;;;20.93;59.58
12759;BME280;20944;47.048;15.390;2022-08-21T00:20:44;97151.56;;;21.16;59.21
12759;BME280;20944;47.048;15.390;2022-08-21T00:23:13;97143.94;;;21.12;59.31
12759;BME280;20944;47.048;15.390;2022-08-21T00:25:42;97148.19;;;21.14;59.09
12759;BME280;20944;47.048;15.390;2022-08-21T00:28:11;97143.34;;;21.08;59.26
12759;BME280;20944;47.048;15.390;2022-08-21T00:30:40;97109.03;;;20.81;59.41
12759;BME280;20944;47.048;15.390;2022-08-21T00:33:10;97131.19;;;20.93;59.40
12759;BME280;20944;47.048;15.390;2022-08-21T00:35:42;97142.84;;;21.03;59.33
12759;BME280;20944;47.048;15.390;2022-08-21T00:38:11;97142.84;;;21.03;59.81
12759;BME280;20944;47.048;15.390;2022-08-21T00:40:42;97140.19;;;21.03;60.12
12759;BME280;20944;47.048;15.390;2022-08-21T00:43:13;97140.31;;;21.01;61.05
12759;BME280;20944;47.048;15.390;2022-08-21T00:45:42;97141.28;;;21.00;61.89
12759;BME280;20944;47.048;15.390;2022-08-21T00:48:11;97142.34;;;20.98;62.51
12759;BME280;20944;47.048;15.390;2022-08-21T00:50:46;97038.97;;;20.34;63.08
12759;BME280;20944;47.048;15.390;2022-08-21T00:53:17;97093.63;;;20.73;63.39
12759;BME280;20944;47.048;15.390;2022-08-21T00:55:46;97108.78;;;20.84;63.49
12759;BME280;20944;47.048;15.390;2022-08-21T00:58:15;97137.97;;;20.86;63.72
12759;BME280;20944;47.048;15.390;2022-08-21T01:00:46;97132.03;;;20.82;65.37
12759;BME280;20944;47.048;15.390;2022-08-21T01:03:18;97141.38;;;20.88;61.81
12759;BME280;20944;47.048;15.390;2022-08-21T01:05:51;97112.66;;;20.91;58.99
12759;BME280;20944;47.048;15.390;2022-08-21T01:08:21;97031.81;;;20.35;58.55
12759;BME280;20944;47.048;15.390;2022-08-21T01:10:50;97056.38;;;20.62;57.75
12759;BME280;20944;47.048;15.390;2022-08-21T01:13:21;97131.09;;;21.17;57.98
12759;BME280;20944;47.048;15.390;2022-08-21T01:15:53;97149.66;;;21.18;57.85
12759;BME280;20944;47.048;15.390;2022-08-21T01:18:22;97132.78;;;21.18;57.31
12759;BME280;20944;47.048;15.390;2022-08-21T01:21:04;97122.13;;;21.18;57.24
12759;BME280;20944;47.048;15.390;2022-08-21T01:23:34;97019.56;;;20.56;57.02
12759;BME280;20944;47.048;15.390;2022-08-21T01:26:03;97157.25;;;21.23;56.84
12759;BME280;20944;47.048;15.390;2022-08-21T01:28:35;97126.97;;;21.24;57.23
12759;BME280;20944;47.048;15.390;2022-08-21T01:31:07;97093.19;;;21.02;57.35
12759;BME280;20944;47.048;15.390;2022-08-21T01:33:37;97119.59;;;21.16;57.14
12759;BME280;20944;47.048;15.390;2022-08-21T01:36:07;97118.88;;;21.25;56.83
12759;BME280;20944;47.048;15.390;2022-08-21T01:38:35;97114.63;;;21.23;56.79
12759;BME280;20944;47.048;15.390;2022-08-21T01:41:04;97105.91;;;21.21;57.02
12759;BME280;20944;47.048;15.390;2022-08-21T01:43:32;97116.22;;;21.25;56.31
12759;BME280;20944;47.048;15.390;2022-08-21T01:46:05;97079.38;;;21.08;56.08
12759;BME280;20944;47.048;15.390;2022-08-21T01:48:34;97120.56;;;21.26;56.37
12759;BME280;20944;47.048;15.390;2022-08-21T01:51:02;97112.72;;;21.25;56.68
12759;BME280;20944;47.048;15.390;2022-08-21T01:53:33;97110.75;;;21.27;56.40
12759;BME280;20944;47.048;15.390;2022-08-21T01:56:03;97107.13;;;21.28;56.49
12759;BME280;20944;47.048;15.390;2022-08-21T01:58:39;97106.63;;;21.23;56.77
12759;BME280;20944;47.048;15.390;2022-08-21T02:01:08;97087.97;;;21.23;55.95
12759;BME280;20944;47.048;15.390;2022-08-21T02:03:37;97109.78;;;21.28;56.49
12759;BME280;20944;47.048;15.390;2022-08-21T02:06:06;97095.97;;;21.23;56.70
12759;BME280;20944;47.048;15.390;2022-08-21T02:08:36;97098.28;;;21.27;56.29
12759;BME280;20944;47.048;15.390;2022-08-21T02:11:04;97103.97;;;21.23;56.53
12759;BME280;20944;47.048;15.390;2022-08-21T02:13:32;97089.06;;;21.20;56.51
12759;BME280;20944;47.048;15.390;2022-08-21T02:16:01;97088.72;;;21.14;56.82
12759;BME280;20944;47.048;15.390;2022-08-21T02:18:29;97084.34;;;21.13;56.60
12759;BME280;20944;47.048;15.390;2022-08-21T02:20:57;97063.16;;;21.00;56.73
12759;BME280;20944;47.048;15.390;2022-08-21T02:23:26;97087.75;;;21.15;56.56
12759;BME280;20944;47.048;15.390;2022-08-21T02:25:57;97077.91;;;21.04;57.19
12759;BME280;20944;47.048;15.390;2022-08-21T02:28:25;97057.47;;;20.93;56.82
12759;BME280;20944;47.048;15.390;2022-08-21T02:30:55;97080.09;;;21.10;56.59
12759;BME280;20944;47.048;15.390;2022-08-21T02:33:24;97030.56;;;20.85;56.89
12759;BME280;20944;47.048;15.390;2022-08-21T02:35:53;97069.69;;;21.07;57.08
12759;BME280;20944;47.048;15.390;2022-08-21T02:38:25;97073.81;;;21.11;56.63
12759;BME280;20944;47.048;15.390;2022-08-21T02:40:56;97076.59;;;21.10;56.96
12759;BME280;20944;47.048;15.390;2022-08-21T02:43:26;96974.66;;;20.52;56.37
12759;BME280;20944;47.048;15.390;2022-08-21T02:45:56;97053.00;;;20.94;56.88
12759;BME280;20944;47.048;15.390;2022-08-21T02:48:27;97047.66;;;20.94;56.69
12759;BME280;20944;47.048;15.390;2022-08-21T02:50:57;97062.91;;;21.03;56.79
12759;BME280;20944;47.048;15.390;2022-08-21T02:53:26;96965.44;;;20.44;56.35
12759;BME280;20944;47.048;15.390;2022-08-21T02:55:58;97061.34;;;21.00;56.61
12759;BME280;20944;47.048;15.390;2022-08-21T02:58:30;97064.09;;;20.99;56.96
12759;BME280;20944;47.048;15.390;2022-08-21T03:00:59;97060.72;;;20.97;56.56
12759;BME280;20944;47.048;15.390;2022-08-21T03:03:28;97065.84;;;21.00;56.58
12759;BME280;20944;47.048;15.390;2022-08-21T03:05:57;97053.84;;;20.94;56.77
12759;BME280;20944;47.048;15.390;2022-08-21T03:08:25;97046.19;;;20.90;56.94
12759;BME280;20944;47.048;15.390;2022-08-21T03:10:55;97066.78;;;20.99;56.96
12759;BME280;20944;47.048;15.390;2022-08-21T03:13:24;97062.69;;;20.95;56.89
12759;BME280;20944;47.048;15.390;2022-08-21T03:15:52;97063.53;;;20.95;58.64
12759;BME280;20944;47.048;15.390;2022-08-21T03:18:24;96817.66;;;19.49;58.10
12759;BME280;20944;47.048;15.390;2022-08-21T03:20:52;97062.56;;;20.96;57.64
12759;BME280;20944;47.048;15.390;2022-08-21T03:23:20;97058.41;;;20.92;56.92
12759;BME280;20944;47.048;15.390;2022-08-21T03:25:49;97061.94;;;20.93;56.32
12759;BME280;20944;47.048;15.390;2022-08-21T03:28:22;97059.88;;;21.08;55.67
12759;BME280;20944;47.048;15.390;2022-08-21T03:30:51;97063.41;;;21.08;55.63
12759;BME280;20944;47.048;15.390;2022-08-21T03:33:20;97061.44;;;21.10;55.65
12759;BME280;20944;47.048;15.390;2022-08-21T03:35:55;97061.44;;;21.10;55.85
12759;BME280;20944;47.048;15.390;2022-08-21T03:38:24;97047.91;;;21.02;55.76
12759;BME280;20944;47.048;15.390;2022-08-21T03:40:54;97070.19;;;21.01;56.20
12759;BME280;20944;47.048;15.390;2022-08-21T03:43:24;97061.94;;;21.04;56.04
12759;BME280;20944;47.048;15.390;2022-08-21T03:45:56;97069.69;;;20.96;56.26
12759;BME280;20944;47.048;15.390;2022-08-21T03:48:24;97037.63;;;20.75;56.31
12759;BME280;20944;47.048;15.390;2022-08-21T03:50:53;97073.06;;;20.98;56.37
12759;BME280;20944;47.048;15.390;2022-08-21T03:53:21;97073.81;;;20.89;56.63
12759;BME280;20944;47.048;15.390;2022-08-21T03:55:51;97081.56;;;20.81;57.14
12759;BME280;20944;47.048;15.390;2022-08-21T03:58:22;97075.34;;;20.80;57.68
12759;BME280;20944;47.048;15.390;2022-08-21T04:00:54;97068.59;;;20.76;57.70
12759;BME280;20944;47.048;15.390;2022-08-21T04:03:23;97076.94;;;20.71;59.06
12759;BME280;20944;47.048;15.390;2022-08-21T04:05:52;97044.66;;;20.41;60.03
12759;BME280;20944;47.048;15.390;2022-08-21T04:08:20;97075.47;;;20.56;60.27
12759;BME280;20944;47.048;15.390;2022-08-21T04:10:51;97049.22;;;20.28;60.64
12759;BME280;20944;47.048;15.390;2022-08-21T04:13:20;97062.63;;;20.15;61.22
12759;BME280;20944;47.048;15.390;2022-08-21T04:15:49;97082.81;;;20.17;63.05
12759;BME280;20944;47.048;15.390;2022-08-21T04:18:22;97065.59;;;19.99;63.51
12759;BME280;20944;47.048;15.390;2022-08-21T04:20:52;97081.69;;;20.09;64.21
12759;BME280;20944;47.048;15.390;2022-08-21T04:23:22;97082.03;;;20.04;63.53
12759;BME280;20944;47.048;15.390;2022-08-21T04:25:51;97082.81;;;20.17;61.00
12759;BME280;20944;47.048;15.390;2022-08-21T04:28:20;96998.84;;;19.67;61.05
12759;BME280;20944;47.048;15.390;2022-08-21T04:30:49;97072.44;;;20.26;61.12
12759;BME280;20944;47.048;15.390;2022-08-21T04:33:19;97073.09;;;20.40;59.06
12759;BME280;20944;47.048;15.390;2022-08-21T04:35:49;97072.06;;;20.54;59.25
12759;BME280;20944;47.048;15.390;2022-08-21T04:38:18;97068.69;;;20.63;61.17
12759;BME280;20944;47.048;15.390;2022-08-21T04:40:47;97053.78;;;20.61;59.92
12759;BME280;20944;47.048;15.390;2022-08-21T04:43:16;97078.66;;;20.84;58.37
12759;BME280;20944;47.048;15.390;2022-08-21T04:45:47;97039.16;;;20.66;57.24
12759;BME280;20944;47.048;15.390;2022-08-21T04:48:18;97089.41;;;21.05;56.47
12759;BME280;20944;47.048;15.390;2022-08-21T04:50:54;97089.56;;;21.14;57.73
12759;BME280;20944;47.048;15.390;2022-08-21T04:53:26;97090.63;;;21.23;55.85
12759;BME280;20944;47.048;15.390;2022-08-21T04:56:02;97063.88;;;21.02;56.06
12759;BME280;20944;47.048;15.390;2022-08-21T04:58:32;97059.75;;;21.09;55.47
12759;BME280;20944;47.048;15.390;2022-08-21T05:01:01;97082.91;;;21.20;55.57
12759;BME280;20944;47.048;15.390;2022-08-21T05:03:32;96839.50;;;19.88;55.31
12759;BME280;20944;47.048;15.390;2022-08-21T05:06:03;97097.06;;;21.43;55.93
12759;BME280;20944;47.048;15.390;2022-08-21T05:08:32;97083.03;;;21.41;55.82
12759;BME280;20944;47.048;15.390;2022-08-21T05:11:03;97061.72;;;21.30;55.55
12759;BME280;20944;47.048;15.390;2022-08-21T05:13:32;97105.19;;;21.52;57.33
12759;BME280;20944;47.048;15.390;2022-08-21T05:16:01;97104.22;;;21.53;59.69
12759;BME280;20944;47.048;15.390;2022-08-21T05:18:29;97103.13;;;21.56;61.58
12759;BME280;20944;47.048;15.390;2022-08-21T05:20:57;97107.38;;;21.47;63.08
12759;BME280;20944;47.048;15.390;2022-08-21T05:23:27;97112.47;;;21.39;63.16
12759;BME280;20944;47.048;15.390;2022-08-21T05:25:55;97073.09;;;21.09;63.84
12759;BME280;20944;47.048;15.390;2022-08-21T05:28:24;97117.06;;;21.26;64.60
12759;BME280;20944;47.048;15.390;2022-08-21T05:30:53;97132.19;;;21.14;64.75
12759;BME280;20944;47.048;15.390;2022-08-21T05:33:21;97129.66;;;21.13;64.55
12759;BME280;20944;47.048;15.390;2022-08-21T05:35:50;97144.53;;;21.15;64.63
12759;BME280;20944;47.048;15.390;2022-08-21T05:38:19;97143.94;;;21.23;64.79
12759;BME280;20944;47.048;15.390;2022-08-21T05:40:49;97139.09;;;21.28;64.75
12759;BME280;20944;47.048;15.390;2022-08-21T05:43:17;97144.34;;;21.30;65.99
12759;BME280;20944;47.048;15.390;2022-08-21T05:45:45;97133.66;;;21.30;66.25
12759;BME280;20944;47.048;15.390;2022-08-21T05:48:15;97139.63;;;21.44;66.67
12759;BME280;20944;47.048;15.390;2022-08-21T05:50:46;97145.19;;;21.41;66.94
12759;BME280;20944;47.048;15.390;2022-08-21T05:53:16;97140.00;;;21.51;66.70
12759;BME280;20944;47.048;15.390;2022-08-21T05:55:45;97143.97;;;21.57;66.08
12759;BME280;20944;47.048;15.390;2022-08-21T06:00:46;97149.75;;;21.73;66.47
12759;BME280;20944;47.048;15.390;2022-08-21T06:03:17;97154.09;;;21.85;65.88
12759;BME280;20944;47.048;15.390;2022-08-21T06:05:46;97154.31;;;21.93;65.87
12759;BME280;20944;47.048;15.390;2022-08-21T06:08:15;97154.56;;;22.01;64.91
12759;BME280;20944;47.048;15.390;2022-08-21T06:10:44;97158.19;;;22.12;64.67
12759;BME280;20944;47.048;15.390;2022-08-21T06:13:14;97156.38;;;22.12;64.77
12759;BME280;20944;47.048;15.390;2022-08-21T06:15:44;97148.50;;;21.99;64.99
12759;BME280;20944;47.048;15.390;2022-08-21T06:18:12;97148.72;;;22.07;65.20
12759;BME280;20944;47.048;15.390;2022-08-21T06:20:41;97162.31;;;22.16;64.28
12759;BME280;20944;47.048;15.390;2022-08-21T06:23:09;97161.47;;;22.15;63.44
12759;BME280;20944;47.048;15.390;2022-08-21T06:25:38;97160.38;;;22.18;61.63
12759;BME280;20944;47.048;15.390;2022-08-21T06:28:08;97163.88;;;22.18;62.72
12759;BME280;20944;47.048;15.390;2022-08-21T06:30:39;97169.00;;;22.10;63.70
12759;BME280;20944;47.048;15.390;2022-08-21T06:33:07;97159.38;;;22.19;63.73
12759;BME280;20944;47.048;15.390;2022-08-21T06:35:36;97153.34;;;22.17;62.71
12759;BME280;20944;47.048;15.390;2022-08-21T06:38:07;97151.75;;;22.25;62.06
12759;BME280;20944;47.048;15.390;2022-08-21T06:40:36;97158.13;;;22.34;60.43
12759;BME280;20944;47.048;15.390;2022-08-21T06:43:15;97163.69;;;22.42;61.24
12759;BME280;20944;47.048;15.390;2022-08-21T06:45:45;97155.66;;;22.42;61.76
12759;BME280;20944;47.048;15.390;2022-08-21T06:48:13;97171.75;;;22.63;62.05
12759;BME280;20944;47.048;15.390;2022-08-21T06:50:45;97163.78;;;22.73;60.43
12759;BME280;20944;47.048;15.390;2022-08-21T06:53:16;97158.06;;;22.77;59.50
12759;BME280;20944;47.048;15.390;2022-08-21T06:55:45;97161.56;;;22.78;58.91
12759;BME280;20944;47.048;15.390;2022-08-21T06:58:14;97171.97;;;22.92;56.67
12759;BME280;20944;47.048;15.390;2022-08-21T07:00:47;97166.75;;;22.91;57.63
12759;BME280;20944;47.048;15.390;2022-08-21T07:03:20;97163.03;;;22.82;56.59
12759;BME280;20944;47.048;15.390;2022-08-21T07:05:49;97140.78;;;22.60;55.64
12759;BME280;20944;47.048;15.390;2022-08-21T07:08:17;97160.91;;;22.65;55.50
12759;BME280;20944;47.048;15.390;2022-08-21T07:10:47;97179.81;;;22.73;56.39
12759;BME280;20944;47.048;15.390;2022-08-21T07:13:16;97160.69;;;22.56;55.25
12759;BME280;20944;47.048;15.390;2022-08-21T07:15:46;97185.66;;;22.67;55.96
12759;BME280;20944;47.048;15.390;2022-08-21T07:18:14;97176.63;;;22.58;55.90
12759;BME280;20944;47.048;15.390;2022-08-21T07:20:43;97179.75;;;22.63;56.49
12759;BME280;20944;47.048;15.390;2022-08-21T07:23:13;97181.91;;;22.69;56.42
12759;BME280;20944;47.048;15.390;2022-08-21T07:25:43;97183.59;;;22.70;56.17
12759;BME280;20944;47.048;15.390;2022-08-21T07:28:12;97189.94;;;22.69;56.56
12759;BME280;20944;47.048;15.390;2022-08-21T07:30:40;97191.47;;;22.72;55.65
12759;BME280;20944;47.048;15.390;2022-08-21T07:33:09;97188.34;;;22.67;55.99
12759;BME280;20944;47.048;15.390;2022-08-21T07:35:38;97180.31;;;22.67;55.59
12759;BME280;20944;47.048;15.390;2022-08-21T07:38:07;97190.88;;;22.68;55.39
12759;BME280;20944;47.048;15.390;2022-08-21T07:40:35;97185.53;;;22.68;56.18
12759;BME280;20944;47.048;15.390;2022-08-21T07:43:03;97186.28;;;22.70;56.17
12759;BME280;20944;47.048;15.390;2022-08-21T07:45:32;97185.66;;;22.67;56.74
12759;BME280;20944;47.048;15.390;2022-08-21T07:48:00;97177.41;;;22.70;57.09
12759;BME280;20944;47.048;15.390;2022-08-21T07:50:30;97169.69;;;22.55;55.96
12759;BME280;20944;47.048;15.390;2022-08-21T07:52:58;97169.44;;;22.58;56.28
12759;BME280;20944;47.048;15.390;2022-08-21T07:55:27;97177.28;;;22.71;56.53
12759;BME280;20944;47.048;15.390;2022-08-21T07:57:55;97180.19;;;22.68;56.50
12759;BME280;20944;47.048;15.390;2022-08-21T08:00:26;97174.00;;;22.68;56.35
12759;BME280;20944;47.048;15.390;2022-08-21T08:02:55;97180.94;;;22.70;56.37
12759;BME280;20944;47.048;15.390;2022-08-21T08:05:26;97190.50;;;22.73;57.49
12759;BME280;20944;47.048;15.390;2022-08-21T08:07:56;97169.25;;;22.71;56.75
12759;BME280;20944;47.048;15.390;2022-08-21T08:10:25;97182.94;;;22.78;56.71
12759;BME280;20944;47.048;15.390;2022-08-21T08:12:56;97168.13;;;22.74;57.36
12759;BME280;20944;47.048;15.390;2022-08-21T08:15:26;97186.59;;;22.88;56.43
12759;BME280;20944;47.048;15.390;2022-08-21T08:17:57;97175.88;;;22.88;56.02
12759;BME280;20944;47.048;15.390;2022-08-21T08:20:25;97180.97;;;22.91;56.74
12759;BME280;20944;47.048;15.390;2022-08-21T08:22:56;97177.63;;;22.99;56.40
12759;BME280;20944;47.048;15.390;2022-08-21T08:25:26;97175.81;;;22.99;56.16
12759;BME280;20944;47.048;15.390;2022-08-21T08:28:03;97120.31;;;22.71;56.02
12759;BME280;20944;47.048;15.390;2022-08-21T08:30:43;97161.47;;;23.00;56.37
12759;BME280;20944;47.048;15.390;2022-08-21T08:33:12;97179.84;;;23.14;54.84
12759;BME280;20944;47.048;15.390;2022-08-21T08:35:42;97179.72;;;23.16;54.38
12759;BME280;20944;47.048;15.390;2022-08-21T08:38:12;97169.69;;;23.08;55.67
12759;BME280;20944;47.048;15.390;2022-08-21T08:40:49;97162.66;;;23.07;55.71
12759;BME280;20944;47.048;15.390;2022-08-21T08:43:21;97170.16;;;23.13;55.83
12759;BME280;20944;47.048;15.390;2022-08-21T08:45:51;97179.00;;;23.14;55.49
12759;BME280;20944;47.048;15.390;2022-08-21T08:48:34;97178.59;;;23.19;55.21
12759;BME280;20944;47.048;15.390;2022-08-21T08:51:07;97171.56;;;23.18;55.51
12759;BME280;20944;47.048;15.390;2022-08-21T08:53:46;97180.94;;;23.33;53.96
12759;BME280;20944;47.048;15.390;2022-08-21T08:56:19;97165.28;;;23.28;55.49
12759;BME280;20944;47.048;15.390;2022-08-21T08:58:52;97184.81;;;23.50;55.78
12759;BME280;20944;47.048;15.390;2022-08-21T09:01:21;97187.09;;;23.54;54.92
12759;BME280;20944;47.048;15.390;2022-08-21T09:03:51;97170.03;;;23.55;55.32
12759;BME280;20944;47.048;15.390;2022-08-21T09:06:43;97193.66;;;23.71;56.30
12759;BME280;20944;47.048;15.390;2022-08-21T09:09:24;97188.19;;;23.73;55.45
12759;BME280;20944;47.048;15.390;2022-08-21T09:12:00;97184.25;;;23.77;54.56
12759;BME280;20944;47.048;15.390;2022-08-21T09:15:00;97186.25;;;23.94;55.30
12759;BME280;20944;47.048;15.390;2022-08-21T09:17:39;97097.38;;;23.50;56.49
12759;BME280;20944;47.048;15.390;2022-08-21T09:20:19;97130.44;;;23.80;55.53
12759;BME280;20944;47.048;15.390;2022-08-21T09:23:05;97178.31;;;24.23;55.86
12759;BME280;20944;47.048;15.390;2022-08-21T09:25:43;97157.59;;;24.15;55.80
12759;BME280;20944;47.048;15.390;2022-08-21T09:28:14;97150.94;;;24.19;54.99
12759;BME280;20944;47.048;15.390;2022-08-21T09:30:42;97151.66;;;24.21;54.86
12759;BME280;20944;47.048;15.390;2022-08-21T09:33:13;97147.56;;;24.17;54.64
12759;BME280;20944;47.048;15.390;2022-08-21T09:35:51;97160.16;;;24.36;54.43
12759;BME280;20944;47.048;15.390;2022-08-21T09:38:26;97140.94;;;24.31;54.44
12759;BME280;20944;47.048;15.390;2022-08-21T09:41:00;97117.97;;;24.19;54.53
12759;BME280;20944;47.048;15.390;2022-08-21T09:43:29;97021.16;;;23.65;54.12
12759;BME280;20944;47.048;15.390;2022-08-21T09:46:05;97143.66;;;24.51;54.73
12759;BME280;20944;47.048;15.390;2022-08-21T09:48:45;97146.78;;;24.56;53.94
12759;BME280;20944;47.048;15.390;2022-08-21T09:51:16;97133.38;;;24.46;54.14
12759;BME280;20944;47.048;15.390;2022-08-21T09:53:48;97140.56;;;24.65;53.40
12759;BME280;20944;47.048;15.390;2022-08-21T09:56:28;97146.19;;;24.62;53.84
12759;BME280;20944;47.048;15.390;2022-08-21T09:59:23;97117.59;;;24.43;55.52
12759;BME280;20944;47.048;15.390;2022-08-21T10:01:53;97120.97;;;24.64;55.03
12759;BME280;20944;47.048;15.390;2022-08-21T10:04:26;97138.44;;;24.78;54.76
12759;BME280;20944;47.048;15.390;2022-08-21T10:07:06;97133.88;;;24.88;54.79
12759;BME280;20944;47.048;15.390;2022-08-21T10:09:34;97136.00;;;25.04;53.44
12759;BME280;20944;47.048;15.390;2022-08-21T10:12:12;97138.13;;;25.10;53.38
12759;BME280;20944;47.048;15.390;2022-08-21T10:14:49;97118.66;;;25.08;52.39
12759;BME280;20944;47.048;15.390;2022-08-21T10:17:25;97110.16;;;25.13;51.99
12759;BME280;20944;47.048;15.390;2022-08-21T10:20:02;97124.53;;;25.21;51.34
12759;BME280;20944;47.048;15.390;2022-08-21T10:22:38;97118.44;;;25.29;52.54
12759;BME280;20944;47.048;15.390;2022-08-21T10:25:28;97111.50;;;25.36;52.57
12759;BME280;20944;47.048;15.390;2022-08-21T10:28:05;97101.31;;;25.40;52.17
12759;BME280;20944;47.048;15.390;2022-08-21T10:30:46;97082.28;;;25.33;51.80
12759;BME280;20944;47.048;15.390;2022-08-21T10:33:26;97111.66;;;25.62;52.46
12759;BME280;20944;47.048;15.390;2022-08-21T10:36:05;97087.25;;;25.55;51.49
12759;BME280;20944;47.048;15.390;2022-08-21T10:39:06;97112.72;;;25.79;52.22
12759;BME280;20944;47.048;15.390;2022-08-21T10:42:21;97110.28;;;25.86;52.55
12759;BME280;20944;47.048;15.390;2022-08-21T10:45:05;97115.09;;;25.82;51.65
12759;BME280;20944;47.048;15.390;2022-08-21T10:47:44;97106.03;;;25.83;51.39
12759;BME280;20944;47.048;15.390;2022-08-21T10:50:22;97104.53;;;25.80;52.06
12759;BME280;20944;47.048;15.390;2022-08-21T10:53:05;97095.78;;;25.78;51.34
12759;BME280;20944;47.048;15.390;2022-08-21T10:55:47;97102.28;;;25.76;52.05
12759;BME280;20944;47.048;15.390;2022-08-21T10:58:23;97104.97;;;25.76;51.92
12759;BME280;20944;47.048;15.390;2022-08-21T11:00:57;97087.34;;;25.64;52.27
12759;BME280;20944;47.048;15.390;2022-08-21T11:03:32;97099.31;;;25.79;51.24
12759;BME280;20944;47.048;15.390;2022-08-21T11:06:05;97102.00;;;25.69;50.16
12759;BME280;20944;47.048;15.390;2022-08-21T11:08:39;97090.25;;;25.70;51.24
12759;BME280;20944;47.048;15.390;2022-08-21T11:11:12;97095.31;;;25.83;51.15
12759;BME280;20944;47.048;15.390;2022-08-21T11:13:50;97073.91;;;25.73;49.96
12759;BME280;20944;47.048;15.390;2022-08-21T11:16:25;97103.88;;;25.96;50.64
12759;BME280;20944;47.048;15.390;2022-08-21T11:19:01;97094.03;;;25.87;48.53
12759;BME280;20944;47.048;15.390;2022-08-21T11:21:38;97092.34;;;25.86;48.43
12759;BME280;20944;47.048;15.390;2022-08-21T11:24:27;97096.31;;;25.82;49.41
12759;BME280;20944;47.048;15.390;2022-08-21T11:27:01;97093.09;;;25.78;49.10
12759;BME280;20944;47.048;15.390;2022-08-21T11:29:34;97107.38;;;25.69;49.86
12759;BME280;20944;47.048;15.390;2022-08-21T11:32:21;97085.91;;;25.42;49.35
12759;BME280;20944;47.048;15.390;2022-08-21T11:35:00;97095.41;;;25.26;49.51
12759;BME280;20944;47.048;15.390;2022-08-21T11:37:45;97092.31;;;25.31;50.30
12759;BME280;20944;47.048;15.390;2022-08-21T11:40:21;97076.31;;;25.39;49.83
12759;BME280;20944;47.048;15.390;2022-08-21T11:43:00;97086.59;;;25.44;48.85
12759;BME280;20944;47.048;15.390;2022-08-21T11:45:38;97026.06;;;25.04;48.90
12759;BME280;20944;47.048;15.390;2022-08-21T11:48:14;97068.88;;;25.33;49.30
12759;BME280;20944;47.048;15.390;2022-08-21T11:50:45;97076.19;;;25.41;48.34
12759;BME280;20944;47.048;15.390;2022-08-21T11:53:20;97060.53;;;25.36;48.56
12759;BME280;20944;47.048;15.390;2022-08-21T11:55:56;97077.47;;;25.37;48.73
12759;BME280;20944;47.048;15.390;2022-08-21T11:58:29;97086.31;;;25.47;48.69
12759;BME280;20944;47.048;15.390;2022-08-21T12:01:02;97077.59;;;25.63;48.24
12759;BME280;20944;47.048;15.390;2022-08-21T12:03:35;97085.63;;;25.72;48.18
12759;BME280;20944;47.048;15.390;2022-08-21T12:06:09;97048.06;;;25.63;48.04
12759;BME280;20944;47.048;15.390;2022-08-21T12:08:40;97003.41;;;25.44;47.84
12759;BME280;20944;47.048;15.390;2022-08-21T12:11:21;97081.59;;;25.86;47.58
12759;BME280;20944;47.048;15.390;2022-08-21T12:13:59;97070.78;;;25.96;46.90
12759;BME280;20944;47.048;15.390;2022-08-21T12:16:30;97060.34;;;25.93;47.72
12759;BME280;20944;47.048;15.390;2022-08-21T12:19:05;97074.91;;;26.08;47.55
12759;BME280;20944;47.048;15.390;2022-08-21T12:21:48;97072.38;;;25.89;46.75
12759;BME280;20944;47.048;15.390;2022-08-21T12:24:18;97071.84;;;25.85;47.34
12759;BME280;20944;47.048;15.390;2022-08-21T12:26:55;97075.75;;;25.63;47.77
12759;BME280;20944;47.048;15.390;2022-08-21T12:29:26;97067.38;;;25.48;47.99
12759;BME280;20944;47.048;15.390;2022-08-21T12:31:59;97042.34;;;25.30;48.13
12759;BME280;20944;47.048;15.390;2022-08-21T12:34:34;97072.31;;;25.53;48.38
12759;BME280;20944;47.048;15.390;2022-08-21T12:37:11;97067.72;;;25.63;47.62
12759;BME280;20944;47.048;15.390;2022-08-21T12:39:44;97047.44;;;25.51;47.64
12759;BME280;20944;47.048;15.390;2022-08-21T12:42:17;97063.69;;;25.49;47.29
12759;BME280;20944;47.048;15.390;2022-08-21T12:44:50;97059.41;;;25.56;47.94
12759;BME280;20944;47.048;15.390;2022-08-21T12:47:27;97062.94;;;25.57;47.78
12759;BME280;20944;47.048;15.390;2022-08-21T12:50:03;97048.69;;;25.56;47.89
12759;BME280;20944;47.048;15.390;2022-08-21T12:52:35;97059.97;;;25.60;47.30
12759;BME280;20944;47.048;15.390;2022-08-21T12:55:06;97014.06;;;25.36;47.96
12759;BME280;20944;47.048;15.390;2022-08-21T12:57:36;97060.75;;;25.43;48.32
12759;BME280;20944;47.048;15.390;2022-08-21T13:00:07;97059.59;;;25.45;47.38
12759;BME280;20944;47.048;15.390;2022-08-21T13:02:45;97059.38;;;25.39;48.72
12759;BME280;20944;47.048;15.390;2022-08-21T13:05:23;97066.28;;;25.41;48.82
12759;BME280;20944;47.048;15.390;2022-08-21T13:07:52;97028.84;;;25.12;47.53
12759;BME280;20944;47.048;15.390;2022-08-21T13:10:23;97058.59;;;25.28;48.11
12759;BME280;20944;47.048;15.390;2022-08-21T13:12:54;97045.22;;;25.19;47.83
12759;BME280;20944;47.048;15.390;2022-08-21T13:15:29;97046.63;;;25.13;47.91
12759;BME280;20944;47.048;15.390;2022-08-21T13:18:00;97058.44;;;25.30;47.79